createdAt,value
2023-12-03T00:01:20.737Z,5.50
2023-12-03T00:03:48.756Z,5.93
2023-12-03T00:06:16.325Z,5.67
2023-12-03T00:08:50.478Z,7.63
2023-12-03T00:11:18.497Z,6.27
2023-12-03T00:13:45.658Z,6.27
2023-12-03T00:16:12.955Z,5.57
2023-12-03T00:18:40.356Z,6.13
2023-12-03T00:21:08.162Z,6.93
2023-12-03T00:23:35.438Z,6.30
2023-12-03T00:26:02.570Z,6.17
2023-12-03T00:28:29.711Z,6.27
2023-12-03T00:30:56.884Z,5.40
2023-12-03T00:33:24.242Z,6.57
2023-12-03T00:35:51.393Z,6.47
2023-12-03T00:38:18.536Z,5.87
2023-12-03T00:40:45.869Z,5.23
2023-12-03T00:43:13.065Z,6.03
2023-12-03T00:45:40.319Z,6.43
2023-12-03T00:48:07.939Z,5.93
2023-12-03T00:50:35.202Z,5.60
2023-12-03T00:53:02.389Z,5.87
2023-12-03T00:55:29.518Z,6.67
2023-12-03T00:57:56.727Z,5.93
2023-12-03T01:00:24.010Z,5.20
2023-12-03T01:02:51.172Z,5.13
2023-12-03T01:05:18.638Z,6.40
2023-12-03T01:07:45.881Z,6.40
2023-12-03T01:10:13.052Z,5.87
2023-12-03T01:12:40.358Z,6.73
2023-12-03T01:15:08.146Z,6.33
2023-12-03T01:17:35.389Z,6.03
2023-12-03T01:20:02.668Z,5.07
2023-12-03T01:22:29.805Z,5.17
2023-12-03T01:24:57.022Z,5.83
2023-12-03T01:27:24.291Z,5.73
2023-12-03T01:29:51.465Z,7.70
2023-12-03T01:32:18.729Z,6.40
2023-12-03T01:34:45.941Z,4.97
2023-12-03T01:37:13.140Z,5.67
2023-12-03T01:39:40.381Z,5.50
2023-12-03T01:42:07.617Z,6.43
2023-12-03T01:44:34.924Z,6.40
2023-12-03T01:47:04.846Z,6.23
2023-12-03T01:49:32.745Z,5.53
2023-12-03T01:52:00.534Z,4.60
2023-12-03T01:54:38.651Z,4.80
2023-12-03T01:57:05.856Z,4.90
2023-12-03T01:59:33.991Z,4.97
2023-12-03T02:02:02.435Z,4.60
2023-12-03T02:04:29.727Z,4.03
2023-12-03T02:06:57.238Z,4.63
2023-12-03T02:09:25.383Z,5.60
2023-12-03T02:11:52.845Z,5.00
2023-12-03T02:14:20.121Z,4.27
2023-12-03T02:16:48.754Z,4.00
2023-12-03T02:19:16.723Z,4.33
2023-12-03T02:21:44.388Z,5.13
2023-12-03T02:24:11.577Z,3.60
2023-12-03T02:26:38.698Z,5.27
2023-12-03T02:29:05.882Z,5.63
2023-12-03T02:31:33.083Z,5.70
2023-12-03T02:34:07.781Z,3.67
2023-12-03T02:36:35.453Z,4.77
2023-12-03T02:39:02.831Z,3.73
2023-12-03T02:41:30.650Z,5.60
2023-12-03T02:43:57.859Z,4.73
2023-12-03T02:46:25.284Z,4.90
2023-12-03T02:48:52.514Z,3.93
2023-12-03T02:51:19.907Z,5.80
2023-12-03T02:53:47.367Z,5.90
2023-12-03T02:56:14.561Z,4.53
2023-12-03T02:58:42.142Z,4.67
2023-12-03T03:01:09.610Z,5.17
2023-12-03T03:03:37.008Z,4.23
2023-12-03T03:06:04.674Z,3.70
2023-12-03T03:08:31.905Z,4.97
2023-12-03T03:10:59.054Z,4.13
2023-12-03T03:13:26.184Z,4.00
2023-12-03T03:15:54.182Z,3.70
2023-12-03T03:18:22.121Z,3.77
2023-12-03T03:20:49.422Z,4.00
2023-12-03T03:23:16.551Z,3.40
2023-12-03T03:25:43.688Z,3.73
2023-12-03T03:28:10.825Z,4.37
2023-12-03T03:30:38.051Z,4.50
2023-12-03T03:33:05.504Z,3.53
2023-12-03T03:35:33.796Z,3.77
2023-12-03T03:38:01.545Z,4.40
2023-12-03T03:40:28.689Z,4.57
2023-12-03T03:42:55.861Z,3.83
2023-12-03T03:45:23.020Z,4.73
2023-12-03T03:47:50.238Z,5.57
2023-12-03T03:50:17.388Z,3.87
2023-12-03T03:52:44.516Z,4.17
2023-12-03T03:55:11.668Z,4.43
2023-12-03T03:57:39.003Z,4.00
2023-12-03T04:00:07.086Z,5.80
2023-12-03T04:02:39.317Z,4.93
2023-12-03T04:05:07.941Z,4.53
2023-12-03T04:07:35.317Z,4.17
2023-12-03T04:10:02.517Z,5.33
2023-12-03T04:12:29.936Z,4.97
2023-12-03T04:14:57.091Z,4.77
2023-12-03T04:17:24.322Z,5.40
2023-12-03T04:19:51.471Z,4.10
2023-12-03T04:22:18.656Z,3.93
2023-12-03T04:24:47.250Z,4.30
2023-12-03T04:27:14.509Z,3.83
2023-12-03T04:29:41.665Z,4.67
2023-12-03T04:32:09.224Z,5.23
2023-12-03T04:34:36.490Z,4.23
2023-12-03T04:37:04.908Z,4.40
2023-12-03T04:39:32.161Z,4.10
2023-12-03T04:41:59.310Z,4.40
2023-12-03T04:44:26.444Z,3.80
2023-12-03T04:46:53.578Z,4.93
2023-12-03T04:49:20.827Z,3.90
2023-12-03T04:51:48.048Z,3.77
2023-12-03T04:54:15.253Z,3.93
2023-12-03T04:56:42.418Z,4.23
2023-12-03T04:59:09.557Z,3.87
2023-12-03T05:01:36.726Z,3.23
2023-12-03T05:04:03.980Z,3.90
2023-12-03T05:06:31.304Z,4.00
2023-12-03T05:08:58.513Z,3.60
2023-12-03T05:11:25.655Z,4.17
2023-12-03T05:13:52.876Z,3.50
2023-12-03T05:16:20.525Z,5.37
2023-12-03T05:18:47.887Z,4.50
2023-12-03T05:21:15.313Z,3.93
2023-12-03T05:23:42.477Z,3.83
2023-12-03T05:26:09.627Z,5.43
2023-12-03T05:28:36.804Z,3.97
2023-12-03T05:31:05.738Z,5.63
2023-12-03T05:33:33.042Z,4.53
2023-12-03T05:36:00.264Z,4.37
2023-12-03T05:38:27.394Z,5.00
2023-12-03T05:40:54.559Z,4.57
2023-12-03T05:43:21.903Z,4.23
2023-12-03T05:45:49.077Z,3.97
2023-12-03T05:48:16.809Z,4.57
2023-12-03T05:50:44.122Z,3.80
2023-12-03T05:53:11.362Z,5.57
2023-12-03T05:55:38.503Z,4.60
2023-12-03T05:58:08.472Z,4.90
2023-12-03T06:00:35.629Z,4.70
2023-12-03T06:03:02.975Z,4.03
2023-12-03T06:05:30.170Z,3.57
2023-12-03T06:07:57.364Z,4.33
2023-12-03T06:10:24.708Z,4.73
2023-12-03T06:12:52.216Z,3.40
2023-12-03T06:15:19.402Z,4.43
2023-12-03T06:17:46.640Z,5.27
2023-12-03T06:20:13.799Z,4.50
2023-12-03T06:22:41.198Z,4.10
2023-12-03T06:25:09.234Z,4.73
2023-12-03T06:27:36.531Z,4.97
2023-12-03T06:30:04.114Z,4.20
2023-12-03T06:32:31.364Z,3.70
2023-12-03T06:34:58.612Z,3.97
2023-12-03T06:37:25.798Z,4.57
2023-12-03T06:39:53.414Z,4.60
2023-12-03T06:42:20.669Z,3.93
2023-12-03T06:44:47.950Z,4.00
2023-12-03T06:47:15.086Z,4.20
2023-12-03T06:49:43.212Z,3.33
2023-12-03T06:52:10.517Z,5.57
2023-12-03T06:54:37.700Z,6.30
2023-12-03T06:57:05.054Z,4.70
2023-12-03T06:59:32.181Z,5.07
2023-12-03T07:01:59.379Z,5.47
2023-12-03T07:04:26.644Z,5.67
2023-12-03T07:06:53.905Z,5.00
2023-12-03T07:09:37.285Z,5.53
2023-12-03T07:12:08.492Z,5.53
2023-12-03T07:14:35.713Z,4.83
2023-12-03T07:17:02.906Z,4.90
2023-12-03T07:19:30.100Z,4.97
2023-12-03T07:21:57.432Z,5.60
2023-12-03T07:24:24.636Z,6.50
2023-12-03T07:26:51.862Z,5.47
2023-12-03T07:29:19.968Z,6.67
2023-12-03T07:31:47.110Z,5.37
2023-12-03T07:34:14.435Z,5.43
2023-12-03T07:36:41.684Z,5.63
2023-12-03T07:39:09.526Z,4.93
2023-12-03T07:41:37.325Z,5.63
2023-12-03T07:44:04.628Z,5.67
2023-12-03T07:46:34.013Z,6.20
2023-12-03T07:49:01.298Z,5.17
2023-12-03T07:51:30.391Z,7.10
2023-12-03T07:53:57.563Z,5.97
2023-12-03T07:56:33.894Z,5.50
2023-12-03T07:59:01.023Z,6.53
2023-12-03T08:01:28.152Z,5.73
2023-12-03T08:03:55.417Z,5.60
2023-12-03T08:06:22.652Z,4.70
2023-12-03T08:08:49.861Z,6.23
2023-12-03T08:11:18.152Z,6.27
2023-12-03T08:13:46.054Z,5.07
2023-12-03T08:16:13.322Z,4.70
2023-12-03T08:18:40.865Z,5.97
2023-12-03T08:21:08.382Z,6.87
2023-12-03T08:23:35.614Z,4.20
2023-12-03T08:26:04.640Z,5.23
2023-12-03T08:28:31.889Z,5.50
2023-12-03T08:31:00.236Z,5.23
2023-12-03T08:33:27.570Z,6.87
2023-12-03T08:35:54.937Z,5.60
2023-12-03T08:38:22.092Z,4.93
2023-12-03T08:40:49.217Z,4.73
2023-12-03T08:43:16.844Z,5.03
2023-12-03T08:45:44.149Z,5.90
2023-12-03T08:48:11.344Z,4.57
2023-12-03T08:50:38.498Z,5.40
2023-12-03T08:53:05.639Z,4.70
2023-12-03T08:55:35.461Z,5.10
2023-12-03T08:58:03.334Z,5.80
2023-12-03T09:00:30.527Z,4.80
2023-12-03T09:02:57.744Z,4.73
2023-12-03T09:05:24.969Z,5.60
2023-12-03T09:07:52.196Z,5.07
2023-12-03T09:10:19.740Z,5.03
2023-12-03T09:12:46.934Z,4.90
2023-12-03T09:15:14.219Z,4.47
2023-12-03T09:17:41.392Z,3.97
2023-12-03T09:20:09.704Z,4.57
2023-12-03T09:22:36.855Z,5.23
2023-12-03T09:25:04.373Z,4.20
2023-12-03T09:27:31.544Z,5.93
2023-12-03T09:29:58.836Z,5.60
2023-12-03T09:32:25.976Z,6.33
2023-12-03T09:34:53.125Z,5.87
2023-12-03T09:37:20.275Z,4.20
2023-12-03T09:39:47.482Z,5.30
2023-12-03T09:42:19.602Z,5.30
2023-12-03T09:44:46.722Z,5.33
2023-12-03T09:47:15.617Z,7.53
2023-12-03T09:49:48.214Z,6.57
2023-12-03T09:52:16.281Z,7.93
2023-12-03T09:54:46.455Z,4.90
2023-12-03T09:57:15.259Z,5.20
2023-12-03T09:59:48.260Z,5.63
2023-12-03T10:02:16.173Z,5.10
2023-12-03T10:04:44.969Z,6.00
2023-12-03T10:07:13.130Z,5.70
2023-12-03T10:09:41.450Z,6.00
2023-12-03T10:12:14.077Z,5.77
2023-12-03T10:14:43.175Z,7.03
2023-12-03T10:17:10.323Z,6.60
2023-12-03T10:19:37.596Z,4.53
2023-12-03T10:22:05.063Z,5.10
2023-12-03T10:24:47.744Z,5.50
2023-12-03T10:27:15.238Z,7.47
2023-12-03T10:29:42.526Z,6.37
2023-12-03T10:32:12.387Z,5.77
2023-12-03T10:34:44.398Z,6.50
2023-12-03T10:37:14.666Z,7.10
2023-12-03T10:39:41.822Z,7.50
2023-12-03T10:42:09.482Z,6.53
2023-12-03T10:44:39.402Z,5.80
2023-12-03T10:47:06.652Z,6.20
2023-12-03T10:49:34.579Z,6.37
2023-12-03T10:52:03.324Z,6.97
2023-12-03T10:54:30.856Z,5.40
2023-12-03T10:56:59.567Z,5.73
2023-12-03T10:59:30.677Z,4.93
2023-12-03T11:02:02.990Z,6.30
2023-12-03T11:04:56.535Z,6.07
2023-12-03T11:07:24.324Z,5.63
2023-12-03T11:09:53.026Z,5.43
2023-12-03T11:12:21.526Z,5.50
2023-12-03T11:14:49.386Z,6.43
2023-12-03T11:17:33.549Z,5.70
2023-12-03T11:20:17.079Z,6.03
2023-12-03T11:23:09.462Z,7.50
2023-12-03T11:25:45.389Z,6.90
2023-12-03T11:28:12.625Z,6.63
2023-12-03T11:30:41.824Z,5.73
2023-12-03T11:33:20.415Z,6.83
2023-12-03T11:35:48.147Z,5.93
2023-12-03T11:38:21.302Z,6.10
2023-12-03T11:40:49.602Z,5.93
2023-12-03T11:43:31.415Z,5.67
2023-12-03T11:45:59.136Z,5.17
2023-12-03T11:48:31.376Z,6.10
2023-12-03T11:50:59.046Z,6.40
2023-12-03T11:54:06.592Z,5.77
2023-12-03T11:56:36.196Z,5.10
2023-12-03T11:59:03.508Z,6.73
2023-12-03T12:01:30.676Z,5.63
2023-12-03T12:03:57.904Z,5.17
2023-12-03T12:06:28.601Z,4.93
2023-12-03T12:08:59.460Z,6.30
2023-12-03T12:11:26.874Z,5.53
2023-12-03T12:13:54.175Z,6.00
2023-12-03T12:16:24.606Z,6.20
2023-12-03T12:18:52.170Z,6.30
2023-12-03T12:21:19.422Z,6.83
2023-12-03T12:23:47.517Z,6.73
2023-12-03T12:26:15.012Z,6.43
2023-12-03T12:28:42.888Z,6.80
2023-12-03T12:31:12.885Z,6.87
2023-12-03T12:33:40.288Z,6.83
2023-12-03T12:36:10.104Z,6.63
2023-12-03T12:38:43.847Z,8.00
2023-12-03T12:41:13.607Z,6.70
2023-12-03T12:44:03.276Z,7.30
2023-12-03T12:46:30.486Z,7.33
2023-12-03T12:49:23.945Z,6.70
2023-12-03T12:51:51.638Z,6.33
2023-12-03T12:54:18.814Z,6.37
2023-12-03T12:56:47.357Z,5.97
2023-12-03T12:59:16.849Z,6.57
2023-12-03T13:01:44.387Z,6.90
2023-12-03T13:04:11.714Z,5.50
2023-12-03T13:06:39.155Z,6.27
2023-12-03T13:09:06.432Z,6.20
2023-12-03T13:11:33.646Z,5.97
2023-12-03T13:14:00.836Z,5.40
2023-12-03T13:16:28.026Z,5.97
2023-12-03T13:18:55.389Z,7.07
2023-12-03T13:21:22.654Z,5.43
2023-12-03T13:23:49.804Z,6.73
2023-12-03T13:26:17.480Z,7.20
2023-12-03T13:28:45.655Z,8.03
2023-12-03T13:31:12.981Z,7.87
2023-12-03T13:33:40.318Z,8.13
2023-12-03T13:36:07.840Z,6.37
2023-12-03T13:38:35.379Z,4.93
2023-12-03T13:41:02.979Z,6.73
2023-12-03T13:43:30.097Z,5.47
2023-12-03T13:45:57.363Z,7.33
2023-12-03T13:48:24.721Z,7.93
2023-12-03T13:50:51.912Z,6.50
2023-12-03T13:53:19.158Z,8.57
2023-12-03T13:55:46.472Z,8.03
2023-12-03T13:58:13.600Z,7.37
2023-12-03T14:00:40.788Z,9.67
2023-12-03T14:03:07.969Z,7.93
2023-12-03T14:05:35.148Z,9.00
2023-12-03T14:08:02.697Z,10.13
2023-12-03T14:10:30.819Z,11.37
2023-12-03T14:12:58.134Z,7.60
2023-12-03T14:15:25.335Z,6.97
2023-12-03T14:17:52.787Z,7.83
2023-12-03T14:20:20.075Z,10.23
2023-12-03T14:22:47.377Z,7.13
2023-12-03T14:25:14.624Z,7.07
2023-12-03T14:27:41.952Z,7.57
2023-12-03T14:30:11.081Z,7.87
2023-12-03T14:32:38.496Z,6.97
2023-12-03T14:35:06.133Z,4.87
2023-12-03T14:37:33.799Z,6.27
2023-12-03T14:40:01.063Z,5.20
2023-12-03T14:42:28.421Z,5.30
2023-12-03T14:44:55.784Z,5.10
2023-12-03T14:47:23.152Z,4.30
2023-12-03T14:49:50.395Z,5.23
2023-12-03T14:52:18.580Z,5.20
2023-12-03T14:54:45.916Z,5.10
2023-12-03T14:57:13.143Z,5.23
2023-12-03T14:59:40.367Z,4.80
2023-12-03T15:02:07.668Z,5.47
2023-12-03T15:04:34.852Z,4.93
2023-12-03T15:07:02.118Z,6.07
2023-12-03T15:09:30.573Z,4.80
2023-12-03T15:11:57.724Z,5.03
2023-12-03T15:14:24.935Z,4.33
2023-12-03T15:16:52.076Z,5.27
2023-12-03T15:19:19.413Z,5.17
2023-12-03T15:21:46.661Z,4.73
2023-12-03T15:24:15.895Z,5.47
2023-12-03T15:26:43.123Z,6.57
2023-12-03T15:29:10.497Z,7.03
2023-12-03T15:31:37.628Z,5.70
2023-12-03T15:34:05.018Z,5.23
2023-12-03T15:36:32.464Z,3.93
2023-12-03T15:38:59.634Z,5.13
2023-12-03T15:41:28.164Z,4.83
2023-12-03T15:43:55.313Z,5.17
2023-12-03T15:46:22.541Z,4.53
2023-12-03T15:48:54.353Z,3.90
2023-12-03T15:51:28.972Z,3.47
2023-12-03T15:53:57.089Z,4.33
2023-12-03T15:56:24.228Z,4.33
2023-12-03T15:58:51.841Z,5.28
2023-12-03T16:01:19.044Z,3.87
2023-12-03T16:03:46.486Z,4.60
2023-12-03T16:06:14.154Z,4.07
2023-12-03T16:08:41.360Z,4.13
2023-12-03T16:11:09.109Z,4.40
2023-12-03T16:13:36.272Z,4.90
2023-12-03T16:16:05.168Z,4.07
2023-12-03T16:18:32.462Z,3.93
2023-12-03T16:20:59.724Z,6.32
2023-12-03T16:23:26.932Z,9.88
2023-12-03T16:25:54.182Z,5.17
2023-12-03T16:28:24.056Z,4.83
2023-12-03T16:30:51.269Z,3.60
2023-12-03T16:33:18.456Z,3.80
2023-12-03T16:35:45.836Z,3.93
2023-12-03T16:38:13.443Z,5.10
2023-12-03T16:40:40.614Z,4.70
2023-12-03T16:43:07.814Z,4.87
2023-12-03T16:45:35.132Z,4.27
2023-12-03T16:48:03.458Z,5.33
2023-12-03T16:50:30.715Z,3.60
2023-12-03T16:52:59.763Z,3.80
2023-12-03T16:55:27.055Z,4.37
2023-12-03T16:57:54.423Z,5.25
2023-12-03T17:00:22.572Z,4.53
2023-12-03T17:02:49.952Z,5.30
2023-12-03T17:05:17.217Z,6.13
2023-12-03T17:07:44.528Z,5.30
2023-12-03T17:10:11.793Z,5.23
2023-12-03T17:12:44.821Z,4.30
2023-12-03T17:15:18.237Z,5.17
2023-12-03T17:17:45.501Z,5.37
2023-12-03T17:20:12.865Z,4.50
2023-12-03T17:22:40.035Z,4.33
2023-12-03T17:25:07.462Z,5.07
2023-12-03T17:27:34.712Z,4.73
2023-12-03T17:30:02.034Z,4.80
2023-12-03T17:32:29.354Z,4.43
2023-12-03T17:34:57.087Z,5.23
2023-12-03T17:37:24.490Z,6.40
2023-12-03T17:39:51.872Z,5.43
2023-12-03T17:42:19.946Z,4.87
2023-12-03T17:44:47.078Z,5.60
2023-12-03T17:47:14.298Z,5.13
2023-12-03T17:49:41.484Z,4.03
2023-12-03T17:52:08.722Z,4.17
2023-12-03T17:54:36.539Z,4.57
2023-12-03T17:57:04.036Z,4.33
2023-12-03T17:59:31.753Z,5.27
2023-12-03T18:01:59.343Z,4.77
2023-12-03T18:04:26.808Z,3.70
2023-12-03T18:06:54.327Z,3.93
2023-12-03T18:09:21.657Z,4.10
2023-12-03T18:11:48.898Z,4.50
2023-12-03T18:14:16.991Z,5.83
2023-12-03T18:16:44.468Z,4.07
2023-12-03T18:19:11.808Z,4.47
2023-12-03T18:21:40.592Z,5.13
2023-12-03T18:24:09.026Z,4.03
2023-12-03T18:26:39.948Z,4.23
2023-12-03T18:29:07.963Z,3.77
2023-12-03T18:31:35.096Z,4.17
2023-12-03T18:34:02.400Z,3.63
2023-12-03T18:36:30.082Z,4.50
2023-12-03T18:38:58.148Z,4.97
2023-12-03T18:41:25.636Z,4.17
2023-12-03T18:43:52.907Z,3.93
2023-12-03T18:46:21.194Z,3.53
2023-12-03T18:48:48.465Z,4.03
2023-12-03T18:51:15.832Z,4.33
2023-12-03T18:53:43.038Z,5.07
2023-12-03T18:56:11.957Z,4.23
2023-12-03T18:58:39.406Z,3.53
2023-12-03T19:01:09.115Z,3.97
2023-12-03T19:03:36.594Z,5.27
2023-12-03T19:06:04.098Z,3.90
2023-12-03T19:08:34.247Z,3.77
2023-12-03T19:11:06.266Z,4.87
2023-12-03T19:13:33.660Z,4.20
2023-12-03T19:16:01.275Z,4.47
2023-12-03T19:18:28.906Z,4.83
2023-12-03T19:20:56.638Z,4.57
2023-12-03T19:23:24.430Z,5.30
2023-12-03T19:25:52.126Z,5.13
2023-12-03T19:28:19.323Z,4.13
2023-12-03T19:30:46.710Z,4.83
2023-12-03T19:33:15.385Z,3.70
2023-12-03T19:35:43.036Z,3.40
2023-12-03T19:38:11.454Z,3.93
2023-12-03T19:40:38.630Z,4.80
2023-12-03T19:43:05.962Z,4.03
2023-12-03T19:45:33.240Z,3.70
2023-12-03T19:48:00.561Z,3.57
2023-12-03T19:50:28.051Z,4.20
2023-12-03T19:52:57.151Z,4.33
2023-12-03T19:55:24.372Z,4.70
2023-12-03T19:57:52.252Z,3.80
2023-12-03T20:00:19.715Z,5.27
2023-12-03T20:02:52.717Z,4.67
2023-12-03T20:05:20.456Z,5.37
2023-12-03T20:07:47.941Z,4.67
2023-12-03T20:10:15.921Z,4.27
2023-12-03T20:12:43.240Z,4.43
2023-12-03T20:15:17.722Z,4.77
2023-12-03T20:17:52.407Z,7.80
2023-12-03T20:20:19.845Z,4.80
2023-12-03T20:22:47.299Z,4.33
2023-12-03T20:25:15.021Z,4.83
2023-12-03T20:27:42.364Z,3.47
2023-12-03T20:30:10.189Z,3.63
2023-12-03T20:32:37.762Z,4.27
2023-12-03T20:35:06.460Z,3.83
2023-12-03T20:37:33.813Z,3.70
2023-12-03T20:40:01.215Z,5.30
2023-12-03T20:42:30.989Z,3.73
2023-12-03T20:44:58.440Z,3.43
2023-12-03T20:47:25.781Z,4.00
2023-12-03T20:49:53.100Z,3.90
2023-12-03T20:52:22.153Z,3.83
2023-12-03T20:54:49.582Z,4.60
2023-12-03T20:57:17.018Z,5.43
2023-12-03T20:59:44.398Z,3.83
2023-12-03T21:02:11.833Z,3.63
2023-12-03T21:04:39.578Z,4.17
2023-12-03T21:07:07.144Z,5.60
2023-12-03T21:09:34.510Z,5.17
2023-12-03T21:12:01.966Z,3.97
2023-12-03T21:14:29.437Z,3.63
2023-12-03T21:16:56.861Z,4.27
2023-12-03T21:19:24.618Z,4.27
2023-12-03T21:21:52.285Z,3.60
2023-12-03T21:24:19.708Z,4.13
2023-12-03T21:26:46.934Z,4.78
2023-12-03T21:29:14.083Z,4.13
2023-12-03T21:31:41.249Z,3.23
2023-12-03T21:34:08.784Z,5.37
2023-12-03T21:36:39.079Z,4.03
2023-12-03T21:39:08.666Z,4.67
2023-12-03T21:41:36.124Z,3.23
2023-12-03T21:44:04.117Z,3.60
2023-12-03T21:46:31.410Z,4.33
2023-12-03T21:48:59.441Z,3.43
2023-12-03T21:51:26.769Z,4.30
2023-12-03T21:53:53.928Z,4.73
2023-12-03T21:56:21.288Z,3.40
2023-12-03T21:58:48.575Z,3.73
2023-12-03T22:01:15.739Z,3.97
2023-12-03T22:03:43.560Z,4.03
2023-12-03T22:06:12.081Z,4.53
2023-12-03T22:08:39.265Z,4.30
2023-12-03T22:11:06.716Z,4.63
2023-12-03T22:13:33.939Z,3.73
2023-12-03T22:16:01.122Z,3.40
2023-12-03T22:18:28.657Z,2.90
2023-12-03T22:20:55.966Z,3.90
2023-12-03T22:23:26.820Z,3.30
2023-12-03T22:25:54.854Z,3.13
2023-12-03T22:28:22.082Z,3.60
2023-12-03T22:30:49.351Z,5.83
2023-12-03T22:33:16.757Z,4.07
2023-12-03T22:35:44.000Z,5.73
2023-12-03T22:38:11.242Z,3.33
2023-12-03T22:40:38.723Z,3.20
2023-12-03T22:43:05.896Z,5.47
2023-12-03T22:45:33.314Z,3.43
2023-12-03T22:48:00.757Z,3.33
2023-12-03T22:50:30.589Z,2.77
2023-12-03T22:52:58.940Z,4.13
2023-12-03T22:55:26.201Z,3.70
2023-12-03T22:57:53.423Z,2.60
2023-12-03T23:00:22.040Z,4.23
2023-12-03T23:02:49.895Z,4.83
2023-12-03T23:07:47.496Z,3.27
2023-12-03T23:10:17.342Z,3.40
2023-12-03T23:12:44.510Z,3.40
2023-12-03T23:15:12.975Z,2.80
2023-12-03T23:17:41.518Z,3.40
2023-12-03T23:20:09.338Z,3.17
2023-12-03T23:22:36.516Z,3.90
2023-12-03T23:25:04.173Z,3.53
2023-12-03T23:27:31.344Z,3.00
2023-12-03T23:29:58.541Z,3.37
2023-12-03T23:32:25.721Z,3.70
2023-12-03T23:34:52.982Z,3.60
2023-12-03T23:37:20.145Z,4.73
2023-12-03T23:39:47.355Z,4.23
2023-12-03T23:42:14.511Z,3.93
2023-12-03T23:44:41.625Z,2.87
2023-12-03T23:47:11.021Z,4.23
2023-12-03T23:49:38.234Z,4.23
2023-12-03T23:52:05.942Z,4.73
2023-12-03T23:54:33.229Z,3.43
2023-12-03T23:57:00.764Z,4.03
2023-12-03T23:59:28.639Z,4.30
